sensor_id;sensor_type;location;lat;lon;timestamp;P1;durP1;ratioP1;P2;durP2;ratioP2
79414;SDS011;68864;44.972;19.612;2023-05-01T00:01:22;9.65;;;5.35;;
79414;SDS011;68864;44.972;19.612;2023-05-01T00:03:50;7.50;;;2.78;;
79414;SDS011;68864;44.972;19.612;2023-05-01T00:06:16;12.18;;;6.00;;
79414;SDS011;68864;44.972;19.612;2023-05-01T00:08:43;8.38;;;3.03;;
79414;SDS011;68864;44.972;19.612;2023-05-01T00:11:10;10.98;;;3.75;;
79414;SDS011;68864;44.972;19.612;2023-05-01T00:13:37;9.18;;;7.57;;
79414;SDS011;68864;44.972;19.612;2023-05-01T00:16:06;10.05;;;7.75;;
79414;SDS011;68864;44.972;19.612;2023-05-01T00:18:34;9.40;;;7.78;;
79414;SDS011;68864;44.972;19.612;2023-05-01T00:21:02;8.10;;;4.90;;
79414;SDS011;68864;44.972;19.612;2023-05-01T00:23:29;9.40;;;6.75;;
79414;SDS011;68864;44.972;19.612;2023-05-01T00:25:56;7.72;;;3.60;;
79414;SDS011;68864;44.972;19.612;2023-05-01T00:28:23;8.88;;;6.03;;
79414;SDS011;68864;44.972;19.612;2023-05-01T00:30:49;11.27;;;6.88;;
79414;SDS011;68864;44.972;19.612;2023-05-01T00:33:16;8.80;;;6.97;;
79414;SDS011;68864;44.972;19.612;2023-05-01T00:35:43;8.77;;;5.53;;
79414;SDS011;68864;44.972;19.612;2023-05-01T00:38:11;8.60;;;2.70;;
79414;SDS011;68864;44.972;19.612;2023-05-01T00:40:41;6.70;;;3.08;;
79414;SDS011;68864;44.972;19.612;2023-05-01T00:43:09;6.45;;;2.13;;
79414;SDS011;68864;44.972;19.612;2023-05-01T00:45:36;6.50;;;3.30;;
79414;SDS011;68864;44.972;19.612;2023-05-01T00:48:03;6.22;;;2.92;;
79414;SDS011;68864;44.972;19.612;2023-05-01T00:52:56;7.15;;;5.80;;
79414;SDS011;68864;44.972;19.612;2023-05-01T00:55:25;7.32;;;5.47;;
79414;SDS011;68864;44.972;19.612;2023-05-01T00:57:52;7.60;;;5.65;;
79414;SDS011;68864;44.972;19.612;2023-05-01T01:00:20;7.78;;;6.63;;
79414;SDS011;68864;44.972;19.612;2023-05-01T01:02:48;11.43;;;6.25;;
79414;SDS011;68864;44.972;19.612;2023-05-01T01:05:15;8.23;;;3.17;;
79414;SDS011;68864;44.972;19.612;2023-05-01T01:07:45;11.15;;;6.22;;
79414;SDS011;68864;44.972;19.612;2023-05-01T01:10:21;8.32;;;6.35;;
79414;SDS011;68864;44.972;19.612;2023-05-01T01:13:10;7.10;;;3.47;;
79414;SDS011;68864;44.972;19.612;2023-05-01T01:15:44;7.20;;;5.80;;
79414;SDS011;68864;44.972;19.612;2023-05-01T01:18:21;5.53;;;2.42;;
79414;SDS011;68864;44.972;19.612;2023-05-01T01:20:53;7.25;;;5.68;;
79414;SDS011;68864;44.972;19.612;2023-05-01T01:23:35;7.72;;;5.35;;
79414;SDS011;68864;44.972;19.612;2023-05-01T01:29:34;4.95;;;2.20;;
79414;SDS011;68864;44.972;19.612;2023-05-01T01:32:15;5.93;;;2.90;;
79414;SDS011;68864;44.972;19.612;2023-05-01T01:35:24;5.63;;;2.70;;
79414;SDS011;68864;44.972;19.612;2023-05-01T01:37:53;9.35;;;5.57;;
79414;SDS011;68864;44.972;19.612;2023-05-01T01:40:28;8.27;;;2.83;;
79414;SDS011;68864;44.972;19.612;2023-05-01T01:43:01;6.30;;;3.88;;
79414;SDS011;68864;44.972;19.612;2023-05-01T01:45:31;7.72;;;5.57;;
79414;SDS011;68864;44.972;19.612;2023-05-01T01:48:03;6.88;;;2.83;;
79414;SDS011;68864;44.972;19.612;2023-05-01T01:50:34;7.22;;;6.40;;
79414;SDS011;68864;44.972;19.612;2023-05-01T01:53:08;7.85;;;5.93;;
79414;SDS011;68864;44.972;19.612;2023-05-01T01:55:39;6.30;;;2.30;;
79414;SDS011;68864;44.972;19.612;2023-05-01T01:58:09;9.88;;;3.13;;
79414;SDS011;68864;44.972;19.612;2023-05-01T02:00:39;8.20;;;6.60;;
79414;SDS011;68864;44.972;19.612;2023-05-01T02:03:09;5.60;;;2.35;;
79414;SDS011;68864;44.972;19.612;2023-05-01T02:05:40;6.25;;;2.95;;
79414;SDS011;68864;44.972;19.612;2023-05-01T02:08:08;7.90;;;6.68;;
79414;SDS011;68864;44.972;19.612;2023-05-01T02:10:37;6.90;;;6.05;;
79414;SDS011;68864;44.972;19.612;2023-05-01T02:13:06;9.18;;;5.60;;
79414;SDS011;68864;44.972;19.612;2023-05-01T02:15:34;9.20;;;6.63;;
79414;SDS011;68864;44.972;19.612;2023-05-01T02:18:05;5.82;;;2.45;;
79414;SDS011;68864;44.972;19.612;2023-05-01T02:20:34;7.22;;;6.10;;
79414;SDS011;68864;44.972;19.612;2023-05-01T02:23:04;7.57;;;5.50;;
79414;SDS011;68864;44.972;19.612;2023-05-01T02:25:33;5.45;;;3.28;;
79414;SDS011;68864;44.972;19.612;2023-05-01T02:28:05;8.73;;;6.15;;
79414;SDS011;68864;44.972;19.612;2023-05-01T02:30:34;5.80;;;2.72;;
79414;SDS011;68864;44.972;19.612;2023-05-01T02:33:01;5.53;;;2.63;;
79414;SDS011;68864;44.972;19.612;2023-05-01T02:35:29;6.20;;;1.85;;
79414;SDS011;68864;44.972;19.612;2023-05-01T02:37:56;5.78;;;2.63;;
79414;SDS011;68864;44.972;19.612;2023-05-01T02:40:24;7.40;;;5.18;;
79414;SDS011;68864;44.972;19.612;2023-05-01T02:42:52;8.18;;;3.08;;
79414;SDS011;68864;44.972;19.612;2023-05-01T02:45:20;6.68;;;2.72;;
79414;SDS011;68864;44.972;19.612;2023-05-01T02:47:49;7.20;;;5.80;;
79414;SDS011;68864;44.972;19.612;2023-05-01T02:50:18;7.70;;;5.32;;
79414;SDS011;68864;44.972;19.612;2023-05-01T02:52:45;8.25;;;3.20;;
79414;SDS011;68864;44.972;19.612;2023-05-01T02:55:13;7.03;;;2.90;;
79414;SDS011;68864;44.972;19.612;2023-05-01T02:57:41;6.65;;;2.53;;
79414;SDS011;68864;44.972;19.612;2023-05-01T03:00:08;8.60;;;5.55;;
79414;SDS011;68864;44.972;19.612;2023-05-01T03:02:37;5.70;;;2.47;;
79414;SDS011;68864;44.972;19.612;2023-05-01T03:05:05;5.60;;;2.67;;
79414;SDS011;68864;44.972;19.612;2023-05-01T03:07:32;5.55;;;2.72;;
79414;SDS011;68864;44.972;19.612;2023-05-01T03:09:59;8.88;;;6.88;;
79414;SDS011;68864;44.972;19.612;2023-05-01T03:12:27;8.55;;;5.38;;
79414;SDS011;68864;44.972;19.612;2023-05-01T03:14:55;6.43;;;3.17;;
79414;SDS011;68864;44.972;19.612;2023-05-01T03:17:22;7.20;;;2.50;;
79414;SDS011;68864;44.972;19.612;2023-05-01T03:19:49;9.35;;;6.38;;
79414;SDS011;68864;44.972;19.612;2023-05-01T03:22:16;7.82;;;6.38;;
79414;SDS011;68864;44.972;19.612;2023-05-01T03:24:43;9.80;;;6.60;;
79414;SDS011;68864;44.972;19.612;2023-05-01T03:27:11;6.78;;;5.78;;
79414;SDS011;68864;44.972;19.612;2023-05-01T03:29:38;11.65;;;8.00;;
79414;SDS011;68864;44.972;19.612;2023-05-01T03:32:06;17.17;;;7.97;;
79414;SDS011;68864;44.972;19.612;2023-05-01T03:34:32;18.73;;;9.02;;
79414;SDS011;68864;44.972;19.612;2023-05-01T03:36:59;17.02;;;10.20;;
79414;SDS011;68864;44.972;19.612;2023-05-01T03:39:26;18.25;;;9.27;;
79414;SDS011;68864;44.972;19.612;2023-05-01T03:41:53;20.73;;;10.48;;
79414;SDS011;68864;44.972;19.612;2023-05-01T03:44:19;14.73;;;10.15;;
79414;SDS011;68864;44.972;19.612;2023-05-01T03:46:46;11.10;;;7.10;;
79414;SDS011;68864;44.972;19.612;2023-05-01T03:49:14;11.05;;;7.95;;
79414;SDS011;68864;44.972;19.612;2023-05-01T03:51:41;10.60;;;6.45;;
79414;SDS011;68864;44.972;19.612;2023-05-01T03:54:08;8.65;;;3.33;;
79414;SDS011;68864;44.972;19.612;2023-05-01T03:56:34;7.18;;;2.42;;
79414;SDS011;68864;44.972;19.612;2023-05-01T03:59:02;7.78;;;3.05;;
79414;SDS011;68864;44.972;19.612;2023-05-01T04:01:29;8.73;;;7.32;;
79414;SDS011;68864;44.972;19.612;2023-05-01T04:03:57;6.38;;;3.10;;
79414;SDS011;68864;44.972;19.612;2023-05-01T04:06:25;5.63;;;3.10;;
79414;SDS011;68864;44.972;19.612;2023-05-01T04:08:52;8.32;;;3.63;;
79414;SDS011;68864;44.972;19.612;2023-05-01T04:11:19;10.40;;;4.63;;
79414;SDS011;68864;44.972;19.612;2023-05-01T04:13:46;17.73;;;10.57;;
79414;SDS011;68864;44.972;19.612;2023-05-01T04:16:12;16.85;;;8.43;;
79414;SDS011;68864;44.972;19.612;2023-05-01T04:18:39;17.73;;;8.10;;
79414;SDS011;68864;44.972;19.612;2023-05-01T04:21:06;20.48;;;11.20;;
79414;SDS011;68864;44.972;19.612;2023-05-01T04:23:34;12.93;;;6.57;;
79414;SDS011;68864;44.972;19.612;2023-05-01T04:26:01;15.02;;;10.73;;
79414;SDS011;68864;44.972;19.612;2023-05-01T04:28:28;22.05;;;12.95;;
79414;SDS011;68864;44.972;19.612;2023-05-01T04:30:55;23.02;;;14.23;;
79414;SDS011;68864;44.972;19.612;2023-05-01T04:33:22;18.85;;;12.07;;
79414;SDS011;68864;44.972;19.612;2023-05-01T04:35:48;19.77;;;12.75;;
79414;SDS011;68864;44.972;19.612;2023-05-01T04:38:15;18.20;;;11.82;;
79414;SDS011;68864;44.972;19.612;2023-05-01T04:40:43;15.30;;;11.45;;
79414;SDS011;68864;44.972;19.612;2023-05-01T04:43:11;15.43;;;11.68;;
79414;SDS011;68864;44.972;19.612;2023-05-01T04:45:38;12.40;;;8.35;;
79414;SDS011;68864;44.972;19.612;2023-05-01T04:48:05;12.68;;;4.90;;
79414;SDS011;68864;44.972;19.612;2023-05-01T04:50:32;13.07;;;8.75;;
79414;SDS011;68864;44.972;19.612;2023-05-01T04:52:59;14.18;;;9.73;;
79414;SDS011;68864;44.972;19.612;2023-05-01T04:55:25;10.20;;;5.35;;
79414;SDS011;68864;44.972;19.612;2023-05-01T04:57:53;9.20;;;4.72;;
79414;SDS011;68864;44.972;19.612;2023-05-01T05:00:21;13.27;;;8.68;;
79414;SDS011;68864;44.972;19.612;2023-05-01T05:02:48;9.98;;;5.22;;
79414;SDS011;68864;44.972;19.612;2023-05-01T05:05:15;9.13;;;4.68;;
79414;SDS011;68864;44.972;19.612;2023-05-01T05:07:42;18.13;;;8.23;;
79414;SDS011;68864;44.972;19.612;2023-05-01T05:10:08;17.73;;;12.63;;
79414;SDS011;68864;44.972;19.612;2023-05-01T05:12:35;20.42;;;14.00;;
79414;SDS011;68864;44.972;19.612;2023-05-01T05:15:06;16.05;;;8.38;;
79414;SDS011;68864;44.972;19.612;2023-05-01T05:17:34;15.10;;;10.25;;
79414;SDS011;68864;44.972;19.612;2023-05-01T05:20:00;19.30;;;12.05;;
79414;SDS011;68864;44.972;19.612;2023-05-01T05:22:27;16.83;;;11.75;;
79414;SDS011;68864;44.972;19.612;2023-05-01T05:27:24;14.27;;;9.07;;
79414;SDS011;68864;44.972;19.612;2023-05-01T05:29:50;12.25;;;8.38;;
79414;SDS011;68864;44.972;19.612;2023-05-01T05:32:18;10.23;;;7.68;;
79414;SDS011;68864;44.972;19.612;2023-05-01T05:34:45;10.00;;;8.40;;
79414;SDS011;68864;44.972;19.612;2023-05-01T05:37:12;24.95;;;16.05;;
79414;SDS011;68864;44.972;19.612;2023-05-01T05:39:39;11.10;;;9.45;;
79414;SDS011;68864;44.972;19.612;2023-05-01T05:42:06;10.20;;;4.53;;
79414;SDS011;68864;44.972;19.612;2023-05-01T05:44:33;10.00;;;7.75;;
79414;SDS011;68864;44.972;19.612;2023-05-01T05:49:28;9.82;;;8.05;;
79414;SDS011;68864;44.972;19.612;2023-05-01T05:51:54;11.07;;;5.45;;
79414;SDS011;68864;44.972;19.612;2023-05-01T05:54:21;24.40;;;12.63;;
79414;SDS011;68864;44.972;19.612;2023-05-01T05:56:48;10.38;;;8.32;;
79414;SDS011;68864;44.972;19.612;2023-05-01T05:59:15;12.52;;;9.48;;
79414;SDS011;68864;44.972;19.612;2023-05-01T06:01:42;9.85;;;4.68;;
79414;SDS011;68864;44.972;19.612;2023-05-01T06:04:09;7.97;;;4.15;;
79414;SDS011;68864;44.972;19.612;2023-05-01T06:06:39;10.55;;;9.18;;
79414;SDS011;68864;44.972;19.612;2023-05-01T06:09:06;8.60;;;4.40;;
79414;SDS011;68864;44.972;19.612;2023-05-01T06:11:33;14.02;;;6.38;;
79414;SDS011;68864;44.972;19.612;2023-05-01T06:14:00;12.77;;;10.27;;
79414;SDS011;68864;44.972;19.612;2023-05-01T06:16:27;10.50;;;8.82;;
79414;SDS011;68864;44.972;19.612;2023-05-01T06:18:54;9.57;;;4.57;;
79414;SDS011;68864;44.972;19.612;2023-05-01T06:21:21;12.63;;;11.23;;
79414;SDS011;68864;44.972;19.612;2023-05-01T06:23:49;13.05;;;7.22;;
79414;SDS011;68864;44.972;19.612;2023-05-01T06:26:16;29.45;;;16.63;;
79414;SDS011;68864;44.972;19.612;2023-05-01T06:28:43;44.40;;;23.70;;
79414;SDS011;68864;44.972;19.612;2023-05-01T06:31:09;13.98;;;8.68;;
79414;SDS011;68864;44.972;19.612;2023-05-01T06:33:36;9.07;;;5.07;;
79414;SDS011;68864;44.972;19.612;2023-05-01T06:36:03;7.63;;;6.32;;
79414;SDS011;68864;44.972;19.612;2023-05-01T06:38:30;13.23;;;6.22;;
79414;SDS011;68864;44.972;19.612;2023-05-01T06:40:59;11.52;;;8.75;;
79414;SDS011;68864;44.972;19.612;2023-05-01T06:43:26;10.27;;;8.32;;
79414;SDS011;68864;44.972;19.612;2023-05-01T06:45:54;8.70;;;3.75;;
79414;SDS011;68864;44.972;19.612;2023-05-01T06:48:21;11.30;;;7.32;;
79414;SDS011;68864;44.972;19.612;2023-05-01T06:50:48;10.15;;;6.57;;
79414;SDS011;68864;44.972;19.612;2023-05-01T06:53:15;6.40;;;3.42;;
79414;SDS011;68864;44.972;19.612;2023-05-01T06:55:42;14.52;;;3.67;;
79414;SDS011;68864;44.972;19.612;2023-05-01T06:58:10;7.43;;;3.22;;
79414;SDS011;68864;44.972;19.612;2023-05-01T07:00:37;9.48;;;6.63;;
79414;SDS011;68864;44.972;19.612;2023-05-01T07:03:03;9.02;;;6.93;;
79414;SDS011;68864;44.972;19.612;2023-05-01T07:05:30;5.80;;;2.95;;
79414;SDS011;68864;44.972;19.612;2023-05-01T07:07:57;9.45;;;5.93;;
79414;SDS011;68864;44.972;19.612;2023-05-01T07:10:25;24.98;;;14.73;;
79414;SDS011;68864;44.972;19.612;2023-05-01T07:12:52;8.20;;;6.30;;
79414;SDS011;68864;44.972;19.612;2023-05-01T07:15:20;7.30;;;5.95;;
79414;SDS011;68864;44.972;19.612;2023-05-01T07:17:47;10.02;;;4.72;;
79414;SDS011;68864;44.972;19.612;2023-05-01T07:20:15;6.68;;;5.80;;
79414;SDS011;68864;44.972;19.612;2023-05-01T07:22:42;8.27;;;6.00;;
79414;SDS011;68864;44.972;19.612;2023-05-01T07:25:09;8.38;;;5.45;;
79414;SDS011;68864;44.972;19.612;2023-05-01T07:27:35;9.63;;;6.32;;
79414;SDS011;68864;44.972;19.612;2023-05-01T07:30:02;5.68;;;4.85;;
79414;SDS011;68864;44.972;19.612;2023-05-01T07:32:31;10.30;;;5.30;;
79414;SDS011;68864;44.972;19.612;2023-05-01T07:34:58;8.18;;;5.75;;
79414;SDS011;68864;44.972;19.612;2023-05-01T07:37:24;7.03;;;4.57;;
79414;SDS011;68864;44.972;19.612;2023-05-01T07:39:51;7.60;;;6.82;;
79414;SDS011;68864;44.972;19.612;2023-05-01T07:42:18;8.75;;;5.38;;
79414;SDS011;68864;44.972;19.612;2023-05-01T07:44:45;7.60;;;6.13;;
79414;SDS011;68864;44.972;19.612;2023-05-01T07:49:40;9.52;;;5.60;;
79414;SDS011;68864;44.972;19.612;2023-05-01T07:52:06;6.32;;;5.10;;
79414;SDS011;68864;44.972;19.612;2023-05-01T07:54:33;7.75;;;6.43;;
79414;SDS011;68864;44.972;19.612;2023-05-01T07:57:00;8.48;;;5.38;;
79414;SDS011;68864;44.972;19.612;2023-05-01T07:59:27;6.18;;;3.90;;
79414;SDS011;68864;44.972;19.612;2023-05-01T08:01:54;5.65;;;4.70;;
79414;SDS011;68864;44.972;19.612;2023-05-01T08:04:21;7.95;;;5.20;;
79414;SDS011;68864;44.972;19.612;2023-05-01T08:06:49;6.60;;;5.25;;
79414;SDS011;68864;44.972;19.612;2023-05-01T08:09:16;8.80;;;5.47;;
79414;SDS011;68864;44.972;19.612;2023-05-01T08:11:43;10.25;;;7.63;;
79414;SDS011;68864;44.972;19.612;2023-05-01T08:14:10;6.25;;;3.22;;
79414;SDS011;68864;44.972;19.612;2023-05-01T08:16:36;10.45;;;6.05;;
79414;SDS011;68864;44.972;19.612;2023-05-01T08:19:03;5.43;;;2.75;;
79414;SDS011;68864;44.972;19.612;2023-05-01T08:21:30;4.97;;;2.70;;
79414;SDS011;68864;44.972;19.612;2023-05-01T08:23:58;7.55;;;5.22;;
79414;SDS011;68864;44.972;19.612;2023-05-01T08:26:25;9.45;;;6.45;;
79414;SDS011;68864;44.972;19.612;2023-05-01T08:31:18;11.05;;;5.20;;
79414;SDS011;68864;44.972;19.612;2023-05-01T08:33:45;7.43;;;6.47;;
79414;SDS011;68864;44.972;19.612;2023-05-01T08:36:12;11.35;;;7.57;;
79414;SDS011;68864;44.972;19.612;2023-05-01T08:38:39;8.88;;;6.93;;
79414;SDS011;68864;44.972;19.612;2023-05-01T08:41:07;7.65;;;6.57;;
79414;SDS011;68864;44.972;19.612;2023-05-01T08:43:35;7.18;;;2.90;;
79414;SDS011;68864;44.972;19.612;2023-05-01T08:48:32;6.75;;;5.88;;
79414;SDS011;68864;44.972;19.612;2023-05-01T08:51:01;7.95;;;2.85;;
79414;SDS011;68864;44.972;19.612;2023-05-01T08:53:30;10.05;;;6.65;;
79414;SDS011;68864;44.972;19.612;2023-05-01T08:55:58;9.88;;;7.38;;
79414;SDS011;68864;44.972;19.612;2023-05-01T08:58:28;7.70;;;6.53;;
79414;SDS011;68864;44.972;19.612;2023-05-01T09:00:56;8.63;;;6.50;;
79414;SDS011;68864;44.972;19.612;2023-05-01T09:03:25;8.23;;;6.53;;
79414;SDS011;68864;44.972;19.612;2023-05-01T09:05:53;7.60;;;6.20;;
79414;SDS011;68864;44.972;19.612;2023-05-01T09:08:21;6.70;;;5.95;;
79414;SDS011;68864;44.972;19.612;2023-05-01T09:10:48;6.55;;;5.65;;
79414;SDS011;68864;44.972;19.612;2023-05-01T09:13:15;10.05;;;5.20;;
79414;SDS011;68864;44.972;19.612;2023-05-01T09:15:43;6.13;;;4.75;;
79414;SDS011;68864;44.972;19.612;2023-05-01T09:18:10;6.72;;;5.75;;
79414;SDS011;68864;44.972;19.612;2023-05-01T09:23:03;6.18;;;5.13;;
79414;SDS011;68864;44.972;19.612;2023-05-01T09:25:30;5.55;;;3.97;;
79414;SDS011;68864;44.972;19.612;2023-05-01T09:27:57;3.92;;;1.77;;
79414;SDS011;68864;44.972;19.612;2023-05-01T09:30:33;6.43;;;4.50;;
79414;SDS011;68864;44.972;19.612;2023-05-01T09:33:05;8.98;;;6.00;;
79414;SDS011;68864;44.972;19.612;2023-05-01T09:35:46;6.03;;;3.67;;
79414;SDS011;68864;44.972;19.612;2023-05-01T09:38:16;6.55;;;3.75;;
79414;SDS011;68864;44.972;19.612;2023-05-01T09:40:43;7.25;;;4.07;;
79414;SDS011;68864;44.972;19.612;2023-05-01T09:43:10;5.60;;;4.63;;
79414;SDS011;68864;44.972;19.612;2023-05-01T09:48:08;5.05;;;2.00;;
79414;SDS011;68864;44.972;19.612;2023-05-01T09:50:36;5.75;;;5.25;;
79414;SDS011;68864;44.972;19.612;2023-05-01T09:53:03;6.28;;;5.68;;
79414;SDS011;68864;44.972;19.612;2023-05-01T09:55:31;4.97;;;4.35;;
79414;SDS011;68864;44.972;19.612;2023-05-01T09:57:58;6.82;;;6.05;;
79414;SDS011;68864;44.972;19.612;2023-05-01T10:00:26;4.85;;;3.75;;
79414;SDS011;68864;44.972;19.612;2023-05-01T10:02:54;7.00;;;4.60;;
79414;SDS011;68864;44.972;19.612;2023-05-01T10:07:56;7.85;;;4.78;;
79414;SDS011;68864;44.972;19.612;2023-05-01T10:10:23;4.15;;;3.30;;
79414;SDS011;68864;44.972;19.612;2023-05-01T10:12:50;4.97;;;4.35;;
79414;SDS011;68864;44.972;19.612;2023-05-01T10:15:17;5.13;;;4.70;;
79414;SDS011;68864;44.972;19.612;2023-05-01T10:17:46;4.32;;;3.90;;
79414;SDS011;68864;44.972;19.612;2023-05-01T10:20:16;4.60;;;2.95;;
79414;SDS011;68864;44.972;19.612;2023-05-01T10:22:44;5.45;;;4.32;;
79414;SDS011;68864;44.972;19.612;2023-05-01T10:25:11;5.07;;;3.47;;
79414;SDS011;68864;44.972;19.612;2023-05-01T10:27:38;4.13;;;3.08;;
79414;SDS011;68864;44.972;19.612;2023-05-01T10:30:06;5.80;;;4.93;;
79414;SDS011;68864;44.972;19.612;2023-05-01T10:32:34;5.70;;;3.63;;
79414;SDS011;68864;44.972;19.612;2023-05-01T10:35:04;5.38;;;3.97;;
79414;SDS011;68864;44.972;19.612;2023-05-01T10:37:37;6.15;;;3.83;;
79414;SDS011;68864;44.972;19.612;2023-05-01T10:43:13;5.75;;;5.22;;
79414;SDS011;68864;44.972;19.612;2023-05-01T10:45:42;4.65;;;3.55;;
79414;SDS011;68864;44.972;19.612;2023-05-01T10:48:09;4.35;;;2.70;;
79414;SDS011;68864;44.972;19.612;2023-05-01T10:53:33;7.18;;;3.13;;
79414;SDS011;68864;44.972;19.612;2023-05-01T10:56:01;4.88;;;4.20;;
79414;SDS011;68864;44.972;19.612;2023-05-01T11:01:31;3.47;;;0.75;;
79414;SDS011;68864;44.972;19.612;2023-05-01T11:03:59;4.70;;;4.22;;
79414;SDS011;68864;44.972;19.612;2023-05-01T11:06:28;3.88;;;3.00;;
79414;SDS011;68864;44.972;19.612;2023-05-01T11:08:55;3.10;;;1.98;;
79414;SDS011;68864;44.972;19.612;2023-05-01T11:14:15;4.30;;;3.25;;
79414;SDS011;68864;44.972;19.612;2023-05-01T11:16:43;4.65;;;3.38;;
79414;SDS011;68864;44.972;19.612;2023-05-01T11:22:13;3.13;;;2.58;;
79414;SDS011;68864;44.972;19.612;2023-05-01T11:24:40;5.95;;;5.05;;
79414;SDS011;68864;44.972;19.612;2023-05-01T11:27:09;4.10;;;3.00;;
79414;SDS011;68864;44.972;19.612;2023-05-01T11:29:38;4.18;;;3.78;;
79414;SDS011;68864;44.972;19.612;2023-05-01T11:32:09;3.55;;;3.03;;
79414;SDS011;68864;44.972;19.612;2023-05-01T11:34:40;3.83;;;3.10;;
79414;SDS011;68864;44.972;19.612;2023-05-01T11:37:07;3.65;;;2.85;;
79414;SDS011;68864;44.972;19.612;2023-05-01T11:39:34;3.17;;;2.67;;
79414;SDS011;68864;44.972;19.612;2023-05-01T11:42:09;3.47;;;2.63;;
79414;SDS011;68864;44.972;19.612;2023-05-01T11:44:35;4.93;;;3.35;;
79414;SDS011;68864;44.972;19.612;2023-05-01T11:47:02;3.72;;;3.17;;
79414;SDS011;68864;44.972;19.612;2023-05-01T11:49:31;3.33;;;2.85;;
79414;SDS011;68864;44.972;19.612;2023-05-01T11:51:58;2.00;;;0.55;;
79414;SDS011;68864;44.972;19.612;2023-05-01T11:54:25;4.25;;;2.90;;
79414;SDS011;68864;44.972;19.612;2023-05-01T11:56:58;5.90;;;4.45;;
79414;SDS011;68864;44.972;19.612;2023-05-01T11:59:27;3.60;;;2.60;;
79414;SDS011;68864;44.972;19.612;2023-05-01T12:01:54;4.07;;;2.58;;
79414;SDS011;68864;44.972;19.612;2023-05-01T12:04:22;2.97;;;2.55;;
79414;SDS011;68864;44.972;19.612;2023-05-01T12:06:50;2.97;;;0.43;;
79414;SDS011;68864;44.972;19.612;2023-05-01T12:09:17;3.20;;;2.17;;
79414;SDS011;68864;44.972;19.612;2023-05-01T12:11:46;2.75;;;1.80;;
79414;SDS011;68864;44.972;19.612;2023-05-01T12:14:14;3.33;;;2.80;;
79414;SDS011;68864;44.972;19.612;2023-05-01T12:19:09;3.13;;;2.53;;
79414;SDS011;68864;44.972;19.612;2023-05-01T12:21:37;3.22;;;2.85;;
79414;SDS011;68864;44.972;19.612;2023-05-01T12:26:34;2.10;;;0.30;;
79414;SDS011;68864;44.972;19.612;2023-05-01T12:31:29;7.57;;;2.15;;
79414;SDS011;68864;44.972;19.612;2023-05-01T12:33:57;4.40;;;2.15;;
79414;SDS011;68864;44.972;19.612;2023-05-01T12:36:27;3.90;;;3.40;;
79414;SDS011;68864;44.972;19.612;2023-05-01T12:38:58;3.42;;;2.40;;
79414;SDS011;68864;44.972;19.612;2023-05-01T12:41:36;3.17;;;2.90;;
79414;SDS011;68864;44.972;19.612;2023-05-01T12:44:19;2.97;;;2.55;;
79414;SDS011;68864;44.972;19.612;2023-05-01T12:46:54;3.08;;;2.20;;
79414;SDS011;68864;44.972;19.612;2023-05-01T12:49:23;3.85;;;3.33;;
79414;SDS011;68864;44.972;19.612;2023-05-01T12:51:50;5.47;;;5.05;;
79414;SDS011;68864;44.972;19.612;2023-05-01T12:54:18;3.95;;;2.53;;
79414;SDS011;68864;44.972;19.612;2023-05-01T12:56:46;2.15;;;0.65;;
79414;SDS011;68864;44.972;19.612;2023-05-01T13:01:47;5.07;;;3.67;;
79414;SDS011;68864;44.972;19.612;2023-05-01T13:04:19;3.25;;;2.85;;
79414;SDS011;68864;44.972;19.612;2023-05-01T13:06:47;4.13;;;2.47;;
79414;SDS011;68864;44.972;19.612;2023-05-01T13:09:14;4.45;;;2.90;;
79414;SDS011;68864;44.972;19.612;2023-05-01T13:11:42;2.28;;;1.90;;
79414;SDS011;68864;44.972;19.612;2023-05-01T13:14:21;4.32;;;2.58;;
79414;SDS011;68864;44.972;19.612;2023-05-01T13:16:48;3.63;;;2.53;;
79414;SDS011;68864;44.972;19.612;2023-05-01T13:21:52;4.05;;;2.55;;
79414;SDS011;68864;44.972;19.612;2023-05-01T13:24:19;3.47;;;2.90;;
79414;SDS011;68864;44.972;19.612;2023-05-01T13:26:46;2.78;;;2.03;;
79414;SDS011;68864;44.972;19.612;2023-05-01T13:29:13;3.13;;;2.70;;
79414;SDS011;68864;44.972;19.612;2023-05-01T13:31:42;2.13;;;0.57;;
79414;SDS011;68864;44.972;19.612;2023-05-01T13:34:09;2.47;;;1.85;;
79414;SDS011;68864;44.972;19.612;2023-05-01T13:36:37;3.20;;;2.40;;
79414;SDS011;68864;44.972;19.612;2023-05-01T13:39:06;3.28;;;2.55;;
79414;SDS011;68864;44.972;19.612;2023-05-01T13:41:33;3.30;;;0.50;;
79414;SDS011;68864;44.972;19.612;2023-05-01T13:44:00;2.92;;;0.55;;
79414;SDS011;68864;44.972;19.612;2023-05-01T13:46:27;2.83;;;0.50;;
79414;SDS011;68864;44.972;19.612;2023-05-01T13:48:54;1.88;;;0.32;;
79414;SDS011;68864;44.972;19.612;2023-05-01T13:51:24;3.70;;;2.42;;
79414;SDS011;68864;44.972;19.612;2023-05-01T13:53:52;2.08;;;0.28;;
79414;SDS011;68864;44.972;19.612;2023-05-01T13:56:22;4.05;;;2.95;;
79414;SDS011;68864;44.972;19.612;2023-05-01T13:58:49;4.20;;;2.55;;
79414;SDS011;68864;44.972;19.612;2023-05-01T14:01:17;1.83;;;1.33;;
79414;SDS011;68864;44.972;19.612;2023-05-01T14:03:45;1.77;;;0.47;;
79414;SDS011;68864;44.972;19.612;2023-05-01T14:06:13;3.63;;;2.40;;
79414;SDS011;68864;44.972;19.612;2023-05-01T14:08:40;4.50;;;3.45;;
79414;SDS011;68864;44.972;19.612;2023-05-01T14:11:08;3.25;;;2.95;;
79414;SDS011;68864;44.972;19.612;2023-05-01T14:13:38;4.30;;;2.60;;
79414;SDS011;68864;44.972;19.612;2023-05-01T14:16:06;4.25;;;2.95;;
79414;SDS011;68864;44.972;19.612;2023-05-01T14:18:35;5.00;;;2.67;;
79414;SDS011;68864;44.972;19.612;2023-05-01T14:21:07;4.00;;;3.33;;
79414;SDS011;68864;44.972;19.612;2023-05-01T14:23:34;4.63;;;3.50;;
79414;SDS011;68864;44.972;19.612;2023-05-01T14:28:29;3.72;;;2.88;;
79414;SDS011;68864;44.972;19.612;2023-05-01T14:30:58;4.82;;;3.13;;
79414;SDS011;68864;44.972;19.612;2023-05-01T14:33:25;4.30;;;2.65;;
79414;SDS011;68864;44.972;19.612;2023-05-01T14:35:52;3.85;;;3.03;;
79414;SDS011;68864;44.972;19.612;2023-05-01T14:38:19;4.60;;;3.15;;
79414;SDS011;68864;44.972;19.612;2023-05-01T14:40:47;3.83;;;2.78;;
79414;SDS011;68864;44.972;19.612;2023-05-01T14:43:14;3.97;;;3.40;;
79414;SDS011;68864;44.972;19.612;2023-05-01T14:45:42;5.90;;;1.23;;
79414;SDS011;68864;44.972;19.612;2023-05-01T14:48:16;5.20;;;3.10;;
79414;SDS011;68864;44.972;19.612;2023-05-01T14:50:47;5.32;;;2.35;;
79414;SDS011;68864;44.972;19.612;2023-05-01T14:53:14;5.38;;;4.88;;
79414;SDS011;68864;44.972;19.612;2023-05-01T14:55:40;3.72;;;0.80;;
79414;SDS011;68864;44.972;19.612;2023-05-01T15:00:34;6.38;;;3.67;;
79414;SDS011;68864;44.972;19.612;2023-05-01T15:03:00;4.07;;;3.05;;
79414;SDS011;68864;44.972;19.612;2023-05-01T15:05:28;2.65;;;1.25;;
79414;SDS011;68864;44.972;19.612;2023-05-01T15:07:55;4.20;;;2.85;;
79414;SDS011;68864;44.972;19.612;2023-05-01T15:10:24;4.38;;;1.70;;
79414;SDS011;68864;44.972;19.612;2023-05-01T15:12:52;3.75;;;3.08;;
79414;SDS011;68864;44.972;19.612;2023-05-01T15:15:19;4.97;;;3.20;;
79414;SDS011;68864;44.972;19.612;2023-05-01T15:17:46;2.85;;;0.77;;
79414;SDS011;68864;44.972;19.612;2023-05-01T15:20:13;5.95;;;3.88;;
79414;SDS011;68864;44.972;19.612;2023-05-01T15:22:41;4.00;;;3.08;;
79414;SDS011;68864;44.972;19.612;2023-05-01T15:25:08;7.43;;;4.38;;
79414;SDS011;68864;44.972;19.612;2023-05-01T15:27:35;7.97;;;3.88;;
79414;SDS011;68864;44.972;19.612;2023-05-01T15:30:02;3.60;;;2.85;;
79414;SDS011;68864;44.972;19.612;2023-05-01T15:32:29;5.40;;;4.43;;
79414;SDS011;68864;44.972;19.612;2023-05-01T15:34:56;5.28;;;3.67;;